sensor_id;sensor_type;location;lat;lon;timestamp;temperature;humidity
55711;DHT22;41612;51.994;5.880;2023-06-24T10:49:35;29.20;39.20
55711;DHT22;41612;51.994;5.880;2023-06-24T10:52:01;29.30;41.00
55711;DHT22;41612;51.994;5.880;2023-06-24T10:54:29;29.40;39.30
55711;DHT22;41612;51.994;5.880;2023-06-24T10:57:11;29.50;41.10
55711;DHT22;41612;51.994;5.880;2023-06-24T10:59:41;29.70;37.80
55711;DHT22;41612;51.994;5.880;2023-06-24T11:02:27;29.70;40.80
55711;DHT22;41612;51.994;5.880;2023-06-24T11:04:57;29.50;37.40
55711;DHT22;41612;51.994;5.880;2023-06-24T11:07:30;29.30;40.80
55711;DHT22;41612;51.994;5.880;2023-06-24T11:10:09;29.50;40.80
55711;DHT22;41612;51.994;5.880;2023-06-24T11:12:39;29.80;40.40
55711;DHT22;41612;51.994;5.880;2023-06-24T11:15:09;30.00;38.30
55711;DHT22;41612;51.994;5.880;2023-06-24T11:17:36;29.90;39.60
55711;DHT22;41612;51.994;5.880;2023-06-24T11:20:07;29.80;39.20
55711;DHT22;41612;51.994;5.880;2023-06-24T11:22:36;29.80;38.70
55711;DHT22;41612;51.994;5.880;2023-06-24T11:25:05;29.80;38.40
55711;DHT22;41612;51.994;5.880;2023-06-24T11:27:42;30.10;43.30
55711;DHT22;41612;51.994;5.880;2023-06-24T11:30:12;30.40;41.40
55711;DHT22;41612;51.994;5.880;2023-06-24T11:32:42;30.50;37.50
55711;DHT22;41612;51.994;5.880;2023-06-24T11:35:12;30.40;38.30
55711;DHT22;41612;51.994;5.880;2023-06-24T11:37:57;30.50;39.70
55711;DHT22;41612;51.994;5.880;2023-06-24T11:40:23;30.60;37.00
55711;DHT22;41612;51.994;5.880;2023-06-24T11:42:50;30.70;40.60
55711;DHT22;41612;51.994;5.880;2023-06-24T11:45:20;30.90;41.20
55711;DHT22;41612;51.994;5.880;2023-06-24T11:47:46;31.20;38.20
55711;DHT22;41612;51.994;5.880;2023-06-24T11:50:14;31.20;36.30
55711;DHT22;41612;51.994;5.880;2023-06-24T11:52:44;31.10;37.60
55711;DHT22;41612;51.994;5.880;2023-06-24T11:55:12;31.20;38.20
55711;DHT22;41612;51.994;5.880;2023-06-24T11:57:57;31.10;36.30
55711;DHT22;41612;51.994;5.880;2023-06-24T12:00:28;31.00;37.30
55711;DHT22;41612;51.994;5.880;2023-06-24T12:03:22;30.90;37.50
55711;DHT22;41612;51.994;5.880;2023-06-24T12:05:48;30.90;36.50
55711;DHT22;41612;51.994;5.880;2023-06-24T12:08:15;30.90;37.40
55711;DHT22;41612;51.994;5.880;2023-06-24T12:10:46;30.70;38.40
55711;DHT22;41612;51.994;5.880;2023-06-24T12:13:17;30.60;37.70
55711;DHT22;41612;51.994;5.880;2023-06-24T12:15:44;30.70;38.00
55711;DHT22;41612;51.994;5.880;2023-06-24T12:19:00;30.90;37.00
55711;DHT22;41612;51.994;5.880;2023-06-24T12:22:24;31.30;37.30
55711;DHT22;41612;51.994;5.880;2023-06-24T12:25:05;32.10;37.50
55711;DHT22;41612;51.994;5.880;2023-06-24T12:27:45;32.80;36.60
55711;DHT22;41612;51.994;5.880;2023-06-24T12:30:31;33.30;33.80
55711;DHT22;41612;51.994;5.880;2023-06-24T12:33:36;33.50;33.70
55711;DHT22;41612;51.994;5.880;2023-06-24T13:23:07;39.50;25.60
55711;DHT22;41612;51.994;5.880;2023-06-24T13:40:14;40.30;25.70
55711;DHT22;41612;51.994;5.880;2023-06-24T13:42:59;40.60;23.70
55711;DHT22;41612;51.994;5.880;2023-06-24T13:49:11;40.20;27.80
55711;DHT22;41612;51.994;5.880;2023-06-24T13:51:37;41.30;24.40
55711;DHT22;41612;51.994;5.880;2023-06-24T13:54:17;41.40;25.50
55711;DHT22;41612;51.994;5.880;2023-06-24T13:57:01;41.00;24.20
55711;DHT22;41612;51.994;5.880;2023-06-24T14:13:40;41.70;25.80
55711;DHT22;41612;51.994;5.880;2023-06-24T14:16:06;41.30;23.70
55711;DHT22;41612;51.994;5.880;2023-06-24T14:18:32;41.50;24.00
55711;DHT22;41612;51.994;5.880;2023-06-24T14:21:05;42.00;27.00
55711;DHT22;41612;51.994;5.880;2023-06-24T14:23:34;42.70;24.10
55711;DHT22;41612;51.994;5.880;2023-06-24T14:26:12;43.20;24.00
55711;DHT22;41612;51.994;5.880;2023-06-24T14:28:38;42.70;24.60
55711;DHT22;41612;51.994;5.880;2023-06-24T14:36:34;38.40;27.00
55711;DHT22;41612;51.994;5.880;2023-06-24T14:39:00;37.50;27.30
55711;DHT22;41612;51.994;5.880;2023-06-24T14:41:37;37.00;29.50
55711;DHT22;41612;51.994;5.880;2023-06-24T14:44:05;36.50;29.90
55711;DHT22;41612;51.994;5.880;2023-06-24T14:46:32;36.90;28.50
55711;DHT22;41612;51.994;5.880;2023-06-24T14:48:57;37.70;27.90
55711;DHT22;41612;51.994;5.880;2023-06-24T14:51:33;37.40;31.70
55711;DHT22;41612;51.994;5.880;2023-06-24T14:54:03;36.90;32.10
55711;DHT22;41612;51.994;5.880;2023-06-24T14:56:46;36.70;29.20
55711;DHT22;41612;51.994;5.880;2023-06-24T14:59:19;36.70;37.20
55711;DHT22;41612;51.994;5.880;2023-06-24T15:02:04;36.20;35.80
55711;DHT22;41612;51.994;5.880;2023-06-24T15:04:32;35.70;38.20
55711;DHT22;41612;51.994;5.880;2023-06-24T15:07:02;35.30;37.80
55711;DHT22;41612;51.994;5.880;2023-06-24T15:09:34;35.00;33.70
55711;DHT22;41612;51.994;5.880;2023-06-24T15:12:07;34.70;33.00
55711;DHT22;41612;51.994;5.880;2023-06-24T15:14:38;34.30;41.40
55711;DHT22;41612;51.994;5.880;2023-06-24T15:17:19;34.20;43.50
55711;DHT22;41612;51.994;5.880;2023-06-24T15:20:07;34.20;41.10
55711;DHT22;41612;51.994;5.880;2023-06-24T15:22:36;35.70;42.70
55711;DHT22;41612;51.994;5.880;2023-06-24T15:25:13;37.60;39.50
55711;DHT22;41612;51.994;5.880;2023-06-24T15:27:41;38.80;36.60
55711;DHT22;41612;51.994;5.880;2023-06-24T15:30:07;38.30;34.10
55711;DHT22;41612;51.994;5.880;2023-06-24T15:32:36;37.10;39.00
55711;DHT22;41612;51.994;5.880;2023-06-24T15:35:06;36.10;40.50
55711;DHT22;41612;51.994;5.880;2023-06-24T15:37:37;35.20;43.10
55711;DHT22;41612;51.994;5.880;2023-06-24T15:40:15;34.50;43.70
55711;DHT22;41612;51.994;5.880;2023-06-24T15:43:09;33.90;44.30
55711;DHT22;41612;51.994;5.880;2023-06-24T15:45:49;33.30;37.50
55711;DHT22;41612;51.994;5.880;2023-06-24T15:48:43;32.90;38.20
55711;DHT22;41612;51.994;5.880;2023-06-24T15:51:13;32.40;37.20
55711;DHT22;41612;51.994;5.880;2023-06-24T15:54:04;32.20;42.00
55711;DHT22;41612;51.994;5.880;2023-06-24T15:56:33;31.70;38.20
55711;DHT22;41612;51.994;5.880;2023-06-24T15:59:05;31.60;44.60
55711;DHT22;41612;51.994;5.880;2023-06-24T16:04:59;31.80;47.00
55711;DHT22;41612;51.994;5.880;2023-06-24T16:08:00;31.70;41.20
55711;DHT22;41612;51.994;5.880;2023-06-24T16:13:08;31.50;49.00
55711;DHT22;41612;51.994;5.880;2023-06-24T16:15:35;31.30;43.30
55711;DHT22;41612;51.994;5.880;2023-06-24T16:18:07;31.20;47.90
55711;DHT22;41612;51.994;5.880;2023-06-24T16:20:35;31.00;50.60
55711;DHT22;41612;51.994;5.880;2023-06-24T16:26:01;30.70;48.40
55711;DHT22;41612;51.994;5.880;2023-06-24T16:55:54;30.60;52.10
55711;DHT22;41612;51.994;5.880;2023-06-24T16:58:20;30.50;52.40
55711;DHT22;41612;51.994;5.880;2023-06-24T17:00:56;30.50;52.50
55711;DHT22;41612;51.994;5.880;2023-06-24T17:03:25;30.50;52.10
55711;DHT22;41612;51.994;5.880;2023-06-24T17:22:37;30.70;45.80
55711;DHT22;41612;51.994;5.880;2023-06-24T17:38:50;30.40;50.10
55711;DHT22;41612;51.994;5.880;2023-06-24T17:49:42;29.90;53.10
55711;DHT22;41612;51.994;5.880;2023-06-24T17:52:11;29.80;53.40
55711;DHT22;41612;51.994;5.880;2023-06-24T17:55:16;29.70;53.50
55711;DHT22;41612;51.994;5.880;2023-06-24T18:00:45;29.60;52.80
55711;DHT22;41612;51.994;5.880;2023-06-24T18:03:39;29.60;53.90
55711;DHT22;41612;51.994;5.880;2023-06-24T19:16:24;27.80;56.20
55711;DHT22;41612;51.994;5.880;2023-06-24T19:18:53;27.70;56.30
55711;DHT22;41612;51.994;5.880;2023-06-24T19:21:22;27.70;56.40
55711;DHT22;41612;51.994;5.880;2023-06-24T19:23:48;27.70;56.50
55711;DHT22;41612;51.994;5.880;2023-06-24T19:26:39;27.60;56.50
55711;DHT22;41612;51.994;5.880;2023-06-24T19:29:25;27.60;56.50
55711;DHT22;41612;51.994;5.880;2023-06-24T19:32:02;27.50;56.70
55711;DHT22;41612;51.994;5.880;2023-06-24T19:35:06;27.50;56.80
55711;DHT22;41612;51.994;5.880;2023-06-24T19:37:51;27.30;56.90
55711;DHT22;41612;51.994;5.880;2023-06-24T19:40:50;27.30;57.10
55711;DHT22;41612;51.994;5.880;2023-06-24T19:43:23;27.20;57.30
